Thargomindah, Australia
Current Conditions -  °F | °C
As of 1:00 AM on Friday 19 Dec 2014 (Local Time) from YBCV Reporting Station
Clear Clear  
Wind Chill: 70°   Ceiling: Unl
Heat Index: 70°   Visibility: 6mi
Dew Point: 66°   Wind: 7mph
Humidity: 88%   Direction: 10°N
Pressure: 29.91"   Gusts: NA
Location:  28°S, 143.82°E
Report Text: YBCV 181500Z AUTO 01006KT 9999 // NCD 21/19 Q1013
Loading
Personal Weather Stations






























Interactive Weather Map New forecast layout! Learn more

10-Day Weather Forecast

Advertisements
Track Severe Weather on mobile